17:28
Airports
Links
Donate
Help keep this website running!
PayPal
Bitcoin
METAR
ENAT 211650Z 17006KT 120V210 9999 BKN031 08/02 Q1030 RMK WIND 700FT 19015KT
Current Weather Conditions at ENAT
VFR 16:50:00 21-09-17
Altimeter:30.41 hg
Temp:8.0°c 46°f
Dew point:2.0°c 36°f
Wind:6 knots, 6.9 mph, 3 m/s, from 170°
Visibility:6.21 statute miles
3100(BKN) Broken
Past METAR reports
VFR 15:50:00 21-09-17
Altimeter:30.44 hg
Temp:9.0°c 48°f
Dew point:2.0°c 36°f
Wind:6 knots, 6.9 mph, 3 m/s, from 180°
Visibility:6.21 statute miles
3400(BKN) Broken
ENAT 211550Z 18006KT 120V240 9999 BKN034 09/02 Q1031 RMK WIND 700FT 20017G30KT
VFR 14:50:00 21-09-17
Altimeter:30.44 hg
Temp:9.0°c 48°f
Dew point:1.0°c 34°f
Wind:8 knots, 9.2 mph, 4 m/s, from 170°
Visibility:6.21 statute miles
3800(BKN) Broken
ENAT 211450Z 17008KT 140V200 9999 BKN038 09/01 Q1031 RMK WIND 700FT 19015KT
VFR 13:50:00 21-09-17
Altimeter:30.44 hg
Temp:9.0°c 48°f
Dew point:2.0°c 36°f
Wind:10 knots, 11.5 mph, 5 m/s, from 190°
Visibility:6.21 statute miles
3300(BKN) Broken
ENAT 211350Z 19010KT 160V230 9999 BKN033 09/02 Q1031 RMK WIND 700FT 19017KT
VFR 12:50:00 21-09-17
Altimeter:30.44 hg
Temp:10.0°c 50°f
Dew point:1.0°c 34°f
Wind:9 knots, 10.4 mph, 5 m/s, from 200°
Visibility:6.21 statute miles
3700(BKN) Broken
ENAT 211250Z 20009KT 160V240 9999 BKN037 10/01 Q1031 RMK WIND 700FT 19019G29KT
VFR 11:50:00 21-09-17
Altimeter:30.44 hg
Temp:10.0°c 50°f
Dew point:0.0°c 32°f
Wind:9 knots, 10.4 mph, 5 m/s, from 200°
Visibility:6.21 statute miles
3900(BKN) Broken
ENAT 211150Z 20009KT 150V230 9999 BKN039 10/00 Q1031 RMK WIND 700FT 19018KT
TAF
TAF ENAT 211400Z 2115/2122 17009KT 9999 SCT040 TEMPO 2115/2121 18015G25KT
Forecast at ENAT
TEMPO 15:00 21-09-17 to 21:00 21-09-17
Wind:15 Knots from 180°
15:00 21-09-17 to 22:00 21-09-17
Wind:9 Knots from 170°
Visibility:6.21 statute miles
4000SCT Scattered